Date,TemperatureHighF,TemperatureAvgF,TemperatureLowF,DewpointHighF,DewpointAvgF,DewpointLowF,HumidityHigh,HumidityAvg,HumidityLow,PressureMaxIn,PressureMinIn,WindSpeedMaxMPH,WindSpeedAvgMPH,GustSpeedMaxMPH,PrecipitationSumIn
2013-10-1,72.1,72.1,72.1,22.8,22.8,22.8,19,19,19,29.93,29.93,2,2,4,0.00
2013-10-2,72.1,72.1,72.1,22.8,22.8,22.8,19,19,19,29.93,29.93,2,2,4,0.00
2013-10-3,72.1,72.1,72.1,22.8,22.8,22.8,19,19,19,29.93,29.93,2,2,4,0.00
2013-10-4,72.1,72.1,72.1,22.8,22.8,22.8,19,19,19,29.93,29.93,2,2,4,0.00
2013-10-5,72.1,72.1,72.1,22.8,22.8,22.8,19,19,19,29.93,29.93,2,2,4,0.00
2013-10-6,72.1,72.1,72.1,22.8,22.8,22.8,19,19,19,29.93,29.93,2,2,4,0.00
2013-10-7,72.1,72.1,72.1,22.8,22.8,22.8,19,19,19,29.93,29.93,2,2,4,0.00
2013-10-8,72.1,72.1,72.1,22.8,22.8,22.8,19,19,19,29.93,29.93,2,2,4,0.00
2013-10-9,72.1,72.1,72.1,22.8,22.8,22.8,19,19,19,29.93,29.93,2,2,4,0.00
2013-10-17,70.3,62.5,56.7,15.3,11.9,9.2,22,17,14,29.81,29.75,2,0,3,0.00
2013-10-18,92.5,66.5,48.7,27.3,21.0,13.9,41,23,11,29.84,29.75,4,0,5,0.00
2013-10-19,93.6,67.1,50.2,34.3,25.0,12.5,54,28,11,29.84,29.78,4,0,5,0.00
2013-10-20,92.7,66.3,49.5,35.2,27.4,16.9,58,31,12,29.84,29.69,7,0,9,0.00
2013-10-21,89.6,63.8,47.8,43.6,33.3,21.1,72,40,12,29.75,29.66,5,0,6,0.00
2013-10-22,91.2,64.2,47.5,45.5,36.1,21.8,78,45,12,29.78,29.66,4,0,5,0.00
2013-10-23,88.0,61.5,47.1,48.0,37.8,28.2,82,50,18,29.72,29.60,4,0,5,0.00
2013-10-24,70.7,55.7,49.3,46.8,40.2,31.3,83,61,27,29.84,29.69,7,1,13,0.00
2013-10-25,84.9,60.5,47.3,48.2,38.6,25.7,86,54,16,29.87,29.78,4,0,5,0.00
2013-10-26,89.2,63.4,46.9,48.6,33.5,20.0,84,45,13,29.84,29.72,3,0,5,0.00
2013-10-27,66.4,54.4,46.4,48.4,39.2,31.6,84,59,34,29.75,29.37,22,4,28,0.04
2013-10-28,62.4,53.5,45.5,45.2,38.4,29.9,83,60,33,29.57,29.37,11,3,24,0.00
2013-10-29,66.0,56.1,48.0,45.0,37.5,26.8,74,54,26,29.75,29.54,9,2,11,0.00
2013-10-30,74.7,55.8,42.8,43.9,34.1,23.8,84,54,21,29.81,29.72,6,0,6,0.00